Massac, Kentucky
Current Conditions -  °F | °C
As of 2:53 AM on Sunday 23 Nov 2014 (Local Time) from KPAH Reporting Station
Clear Clear  
Wind Chill: 51°   Ceiling: Unl
Heat Index: 51°   Visibility: 10mi
Dew Point: 43°   Wind: 7mph
Humidity: 74%   Direction: 140°SE
Pressure: 29.89"   Gusts: NA
Location:  37.0331°N, 88.716°W
Report Text: KPAH 230853Z AUTO 14006KT 10SM CLR 11/06 A2989 RMK AO2 SLP121 T01060061 56020 $
Loading
Personal Weather Stations






























Interactive Weather Map New forecast layout! Learn more

10-Day Weather Forecast

Advertisements
Track Severe Weather on mobile